createdAt,value
2023-02-06T00:00:44.027Z,117.94
2023-02-06T00:03:50.912Z,112.17
2023-02-06T00:06:59.406Z,109.84
2023-02-06T00:10:06.297Z,114.33
2023-02-06T00:13:12.409Z,112.01
2023-02-06T00:16:21.373Z,116.78
2023-02-06T00:19:27.385Z,121.40
2023-02-06T00:22:37.182Z,121.33
2023-02-06T00:25:43.149Z,119.02
2023-02-06T00:28:50.609Z,114.37
2023-02-06T00:31:56.892Z,120.66
2023-02-06T00:35:11.125Z,120.41
2023-02-06T00:38:22.345Z,110.70
2023-02-06T00:41:29.126Z,115.37
2023-02-06T00:44:35.054Z,113.90
2023-02-06T00:47:41.855Z,114.12
2023-02-06T00:50:50.494Z,129.43
2023-02-06T00:53:59.978Z,134.66
2023-02-06T00:57:05.895Z,124.99
2023-02-06T01:00:16.041Z,112.76
2023-02-06T01:03:21.912Z,118.68
2023-02-06T01:06:28.769Z,112.24
2023-02-06T01:09:37.401Z,104.82
2023-02-06T01:12:44.298Z,108.40
2023-02-06T01:15:52.163Z,104.49
2023-02-06T01:18:59.367Z,106.79
2023-02-06T01:22:05.351Z,111.36
2023-02-06T01:25:14.905Z,110.54
2023-02-06T01:28:21.165Z,103.40
2023-02-06T01:31:32.025Z,103.04
2023-02-06T01:34:37.919Z,107.57
2023-02-06T01:37:45.323Z,107.46
2023-02-06T01:41:00.371Z,113.49
2023-02-06T01:44:22.702Z,124.51
2023-02-06T01:47:30.396Z,125.00
2023-02-06T01:50:40.367Z,125.83
2023-02-06T01:53:56.792Z,124.12
2023-02-06T01:57:14.545Z,121.90
2023-02-06T02:00:27.640Z,103.84
2023-02-06T02:03:39.997Z,108.78
2023-02-06T02:06:47.461Z,111.41
2023-02-06T02:09:58.749Z,118.31
2023-02-06T02:13:17.603Z,128.79
2023-02-06T02:16:39.770Z,128.19
2023-02-06T02:20:48.869Z,125.18
2023-02-06T02:24:07.943Z,136.15
2023-02-06T02:27:47.772Z,110.84
2023-02-06T02:31:41.318Z,123.41
2023-02-06T02:35:25.765Z,119.91
2023-02-06T02:38:55.057Z,122.44
2023-02-06T02:42:14.743Z,122.08
2023-02-06T02:45:33.329Z,119.12
2023-02-06T02:48:47.246Z,106.52
2023-02-06T02:51:58.666Z,110.20
2023-02-06T02:55:23.603Z,111.75
2023-02-06T02:58:44.796Z,119.39
2023-02-06T03:02:02.637Z,130.33
2023-02-06T03:05:14.754Z,126.86
2023-02-06T03:08:47.145Z,123.49
2023-02-06T03:12:14.670Z,121.83
2023-02-06T03:15:34.942Z,120.15
2023-02-06T03:18:50.078Z,106.29
2023-02-06T03:21:57.001Z,113.19
2023-02-06T03:25:13.316Z,111.36
2023-02-06T03:28:31.164Z,120.56
2023-02-06T03:31:45.882Z,117.95
2023-02-06T03:35:06.465Z,121.60
2023-02-06T03:38:13.860Z,116.29
2023-02-06T03:41:34.969Z,114.83
2023-02-06T03:44:57.520Z,111.78
2023-02-06T03:48:18.294Z,109.45
2023-02-06T03:51:31.919Z,107.00
2023-02-06T03:54:46.100Z,108.15
2023-02-06T03:58:09.031Z,107.62
2023-02-06T04:01:17.540Z,108.35
2023-02-06T04:04:29.372Z,107.23
2023-02-06T04:07:43.063Z,102.74
2023-02-06T04:10:49.546Z,104.11
2023-02-06T04:13:58.920Z,104.87
2023-02-06T04:17:09.799Z,101.67
2023-02-06T04:20:17.106Z,101.28
2023-02-06T04:23:24.291Z,102.79
2023-02-06T04:26:31.201Z,98.18
2023-02-06T04:29:39.724Z,97.69
2023-02-06T04:32:46.786Z,97.56
2023-02-06T04:35:52.726Z,97.80
2023-02-06T04:38:59.549Z,96.84
2023-02-06T04:42:05.836Z,96.72
2023-02-06T04:45:15.745Z,97.56
2023-02-06T04:48:24.714Z,99.08
2023-02-06T04:51:31.491Z,106.45
2023-02-06T04:54:37.459Z,108.03
2023-02-06T04:57:44.539Z,104.80
2023-02-06T05:00:58.452Z,125.32
2023-02-06T05:04:05.460Z,122.28
2023-02-06T05:07:11.379Z,128.01
2023-02-06T05:10:18.691Z,124.84
2023-02-06T05:13:30.480Z,122.90
2023-02-06T05:16:39.901Z,126.89
2023-02-06T05:19:46.119Z,134.32
2023-02-06T05:22:52.902Z,166.01
2023-02-06T05:25:59.806Z,166.53
2023-02-06T05:29:27.770Z,152.91
2023-02-06T05:32:36.266Z,156.73
2023-02-06T05:35:43.904Z,161.21
2023-02-06T05:38:54.122Z,168.66
2023-02-06T05:42:00.960Z,203.44
2023-02-06T05:45:08.586Z,213.91
2023-02-06T05:48:17.933Z,211.15
2023-02-06T05:51:23.778Z,213.88
2023-02-06T05:54:30.615Z,254.62
2023-02-06T05:57:36.693Z,346.88
2023-02-06T06:00:51.493Z,360.21
2023-02-06T06:04:09.723Z,284.98
2023-02-06T06:07:16.691Z,247.64
2023-02-06T06:10:22.940Z,225.03
2023-02-06T06:13:30.611Z,180.96
2023-02-06T06:16:41.788Z,167.11
2023-02-06T06:19:51.225Z,168.71
2023-02-06T06:22:57.338Z,186.88
2023-02-06T06:26:04.139Z,192.27
2023-02-06T06:29:15.179Z,178.33
2023-02-06T06:32:22.488Z,164.39
2023-02-06T06:35:31.180Z,151.26
2023-02-06T06:38:38.707Z,152.40
2023-02-06T06:41:44.950Z,150.54
2023-02-06T06:44:51.799Z,133.19
2023-02-06T06:47:57.914Z,118.31
2023-02-06T06:51:07.841Z,107.51
2023-02-06T06:54:14.702Z,102.37
2023-02-06T06:57:23.828Z,110.42
2023-02-06T07:00:41.422Z,114.97
2023-02-06T07:03:49.265Z,100.73
2023-02-06T07:06:57.877Z,92.69
2023-02-06T07:10:04.867Z,92.22
2023-02-06T07:13:11.027Z,87.14
2023-02-06T07:16:17.910Z,76.56
2023-02-06T07:19:24.308Z,71.59
2023-02-06T07:22:51.528Z,70.14
2023-02-06T07:26:08.902Z,63.34
2023-02-06T07:29:27.213Z,64.58
2023-02-06T07:32:33.999Z,63.10
2023-02-06T07:35:39.853Z,63.74
2023-02-06T07:38:51.249Z,65.16
2023-02-06T07:41:57.290Z,61.12
2023-02-06T07:45:17.152Z,59.14
2023-02-06T07:48:23.215Z,60.04
2023-02-06T07:51:33.042Z,62.68
2023-02-06T07:54:41.643Z,61.66
2023-02-06T07:57:48.490Z,58.65
2023-02-06T08:00:54.963Z,53.47
2023-02-06T08:04:08.897Z,53.08
2023-02-06T08:07:16.713Z,53.26
2023-02-06T08:10:32.929Z,54.55
2023-02-06T08:13:43.070Z,60.41
2023-02-06T08:16:49.884Z,60.98
2023-02-06T08:20:06.837Z,62.55
2023-02-06T08:23:13.607Z,59.84
2023-02-06T08:26:22.380Z,53.47
2023-02-06T08:29:30.041Z,50.81
2023-02-06T08:32:39.481Z,46.25
2023-02-06T08:35:52.378Z,46.53
2023-02-06T08:39:09.873Z,50.70
2023-02-06T08:42:19.273Z,49.86
2023-02-06T08:45:30.426Z,46.00
2023-02-06T08:48:37.248Z,44.56
2023-02-06T08:51:44.372Z,43.98
2023-02-06T08:54:54.135Z,36.30
2023-02-06T08:58:08.901Z,35.34
2023-02-06T09:01:26.731Z,31.70
2023-02-06T09:04:35.759Z,32.86
2023-02-06T09:07:42.514Z,31.95
2023-02-06T09:10:48.420Z,29.91
2023-02-06T09:14:01.303Z,27.56
2023-02-06T09:17:07.478Z,20.73
2023-02-06T09:20:14.585Z,21.06
2023-02-06T09:23:20.826Z,20.10
2023-02-06T09:26:30.918Z,19.34
2023-02-06T09:29:39.670Z,19.92
2023-02-06T09:32:46.707Z,17.76
2023-02-06T09:35:52.746Z,18.56
2023-02-06T09:39:00.796Z,19.30
2023-02-06T09:42:15.072Z,19.12
2023-02-06T09:45:30.395Z,18.52
2023-02-06T09:48:42.325Z,18.33
2023-02-06T09:52:29.240Z,15.69
2023-02-06T09:55:47.511Z,15.33
2023-02-06T09:59:07.541Z,15.33
2023-02-06T10:02:47.932Z,14.20
2023-02-06T10:06:14.381Z,14.37
2023-02-06T10:09:31.612Z,14.92
2023-02-06T10:12:47.995Z,15.84
2023-02-06T10:16:02.286Z,14.59
2023-02-06T10:19:24.472Z,15.58
2023-02-06T10:22:42.071Z,15.22
2023-02-06T10:26:17.590Z,15.04
2023-02-06T10:29:31.876Z,16.43
2023-02-06T10:32:54.198Z,17.17
2023-02-06T10:36:25.617Z,17.84
2023-02-06T10:40:04.361Z,18.69
2023-02-06T10:43:29.354Z,19.75
2023-02-06T10:46:48.433Z,23.59
2023-02-06T10:50:05.050Z,26.29
2023-02-06T10:53:25.112Z,23.62
2023-02-06T10:56:38.804Z,23.89
2023-02-06T10:59:57.740Z,23.58
2023-02-06T11:03:11.015Z,22.04
2023-02-06T11:06:26.008Z,22.07
2023-02-06T11:09:40.245Z,21.48
2023-02-06T11:13:03.944Z,21.88
2023-02-06T11:16:23.660Z,21.48
2023-02-06T11:19:40.603Z,21.18
2023-02-06T11:22:53.012Z,20.20
2023-02-06T11:26:17.493Z,19.23
2023-02-06T11:29:30.000Z,18.17
2023-02-06T11:32:52.901Z,18.05
2023-02-06T11:36:33.021Z,19.94
2023-02-06T11:39:42.608Z,22.01
2023-02-06T11:42:55.664Z,21.00
2023-02-06T11:46:21.615Z,22.96
2023-02-06T11:49:31.945Z,23.69
2023-02-06T11:52:38.983Z,23.53
2023-02-06T11:55:45.623Z,24.88
2023-02-06T11:59:14.890Z,24.85
2023-02-06T12:02:36.674Z,25.67
2023-02-06T12:05:47.357Z,27.02
2023-02-06T12:08:56.620Z,27.61
2023-02-06T12:12:13.331Z,25.66
2023-02-06T12:15:45.369Z,24.57
2023-02-06T12:19:00.683Z,28.11
2023-02-06T12:22:21.613Z,24.92
2023-02-06T12:25:36.107Z,23.55
2023-02-06T12:28:57.827Z,23.35
2023-02-06T12:32:18.379Z,22.16
2023-02-06T12:35:45.425Z,25.72
2023-02-06T12:39:01.304Z,25.44
2023-02-06T12:42:37.218Z,24.15
2023-02-06T12:45:55.211Z,19.91
2023-02-06T12:49:18.831Z,19.44
2023-02-06T12:52:34.579Z,21.27
2023-02-06T12:56:00.631Z,20.00
2023-02-06T13:00:10.960Z,21.02
2023-02-06T13:03:30.446Z,21.52
2023-02-06T13:07:02.727Z,23.25
2023-02-06T13:10:30.057Z,19.79
2023-02-06T13:13:43.749Z,19.38
2023-02-06T13:16:58.435Z,19.23
2023-02-06T13:20:17.860Z,19.96
2023-02-06T13:23:29.568Z,19.54
2023-02-06T13:27:16.728Z,19.65
2023-02-06T13:30:51.070Z,19.16
2023-02-06T13:34:04.443Z,18.54
2023-02-06T13:37:30.925Z,19.39
2023-02-06T13:40:40.825Z,19.11
2023-02-06T13:43:57.111Z,18.47
2023-02-06T13:47:34.885Z,21.34
2023-02-06T13:51:17.028Z,24.40
2023-02-06T13:55:06.218Z,21.38
2023-02-06T13:58:48.808Z,24.87
2023-02-06T14:01:57.611Z,24.23
2023-02-06T14:05:07.991Z,20.93
2023-02-06T14:08:30.588Z,24.11
2023-02-06T14:12:17.997Z,23.36
2023-02-06T14:15:45.143Z,24.38
2023-02-06T14:19:09.075Z,22.58
2023-02-06T14:22:38.189Z,20.18
2023-02-06T14:26:16.000Z,21.39
2023-02-06T14:29:49.069Z,23.73
2023-02-06T14:33:19.625Z,28.13
2023-02-06T14:37:04.001Z,27.47
2023-02-06T14:40:22.674Z,24.30
2023-02-06T14:43:38.278Z,20.11
2023-02-06T14:46:45.297Z,19.47
2023-02-06T14:49:58.331Z,20.02
2023-02-06T14:53:12.632Z,39.58
2023-02-06T14:56:27.165Z,44.83
2023-02-06T14:59:34.129Z,38.01
2023-02-06T15:02:41.328Z,34.45
2023-02-06T15:05:50.448Z,30.35
2023-02-06T15:08:57.761Z,26.03
2023-02-06T15:12:21.536Z,29.23
2023-02-06T15:15:32.357Z,32.74
2023-02-06T15:18:40.449Z,30.16
2023-02-06T15:21:50.927Z,31.94
2023-02-06T15:25:22.112Z,27.83
2023-02-06T15:28:33.914Z,24.35
2023-02-06T15:31:39.988Z,22.41
2023-02-06T15:34:49.916Z,22.87
2023-02-06T15:37:59.731Z,24.18
2023-02-06T15:41:11.632Z,23.19
2023-02-06T15:44:31.276Z,23.67
2023-02-06T15:47:39.280Z,29.69
2023-02-06T15:50:57.359Z,31.08
2023-02-06T15:54:23.851Z,27.44
2023-02-06T15:57:36.657Z,29.20
2023-02-06T16:00:45.625Z,31.83
2023-02-06T16:04:01.476Z,37.49
2023-02-06T16:07:19.367Z,42.08
2023-02-06T16:10:32.120Z,49.29
2023-02-06T16:13:40.216Z,49.65
2023-02-06T16:17:01.363Z,61.04
2023-02-06T16:20:33.407Z,65.20
2023-02-06T16:23:49.850Z,49.02
2023-02-06T16:26:59.499Z,41.02
2023-02-06T16:30:06.356Z,42.57
2023-02-06T16:33:28.961Z,36.75
2023-02-06T16:36:36.411Z,36.10
2023-02-06T16:39:45.541Z,40.17
2023-02-06T16:42:54.319Z,39.39
2023-02-06T16:46:02.872Z,36.46
2023-02-06T16:49:15.148Z,35.97
2023-02-06T16:52:28.473Z,37.11
2023-02-06T16:55:34.699Z,41.91
2023-02-06T16:58:46.729Z,45.11
2023-02-06T17:01:52.840Z,44.69
2023-02-06T17:05:00.008Z,47.86
2023-02-06T17:08:16.579Z,55.92
2023-02-06T17:11:23.437Z,57.55
2023-02-06T17:14:34.896Z,59.72
2023-02-06T17:17:43.032Z,50.44
2023-02-06T17:20:53.731Z,51.16
2023-02-06T17:24:00.657Z,49.35
2023-02-06T17:27:07.467Z,51.82
2023-02-06T17:30:22.837Z,54.11
2023-02-06T17:33:28.962Z,69.68
2023-02-06T17:36:39.804Z,65.70
2023-02-06T17:39:45.866Z,76.13
2023-02-06T17:42:53.787Z,72.04
2023-02-06T17:46:02.528Z,66.19
2023-02-06T17:49:09.558Z,72.19
2023-02-06T17:52:16.488Z,84.30
2023-02-06T17:55:24.020Z,103.82
2023-02-06T17:58:33.464Z,119.45
2023-02-06T18:01:43.373Z,107.76
2023-02-06T18:04:53.613Z,98.40
2023-02-06T18:08:01.192Z,93.28
2023-02-06T18:11:12.304Z,87.88
2023-02-06T18:14:21.103Z,83.98
2023-02-06T18:17:31.129Z,89.80
2023-02-06T18:20:39.449Z,85.39
2023-02-06T18:23:46.591Z,77.77
2023-02-06T18:26:53.487Z,242.93
2023-02-06T18:29:59.870Z,360.52
2023-02-06T18:33:09.649Z,586.63
2023-02-06T18:36:15.945Z,581.07
2023-02-06T18:39:23.400Z,379.52
2023-02-06T18:42:42.872Z,354.77
2023-02-06T18:46:10.203Z,459.13
2023-02-06T18:49:33.541Z,415.02
2023-02-06T18:52:54.408Z,359.74
2023-02-06T18:56:18.754Z,307.56
2023-02-06T18:59:42.668Z,264.49
2023-02-06T19:03:03.632Z,268.21
2023-02-06T19:06:32.148Z,258.84
2023-02-06T19:10:00.888Z,242.98
2023-02-06T19:13:21.513Z,550.51
2023-02-06T19:16:47.555Z,526.11
2023-02-06T19:20:11.081Z,503.99
2023-02-06T19:23:35.145Z,632.88
2023-02-06T19:26:56.734Z,520.46
2023-02-06T19:30:17.977Z,360.61
2023-02-06T19:33:43.837Z,290.41
2023-02-06T19:37:04.708Z,342.94
2023-02-06T19:40:28.119Z,507.03
2023-02-06T19:43:49.554Z,630.29
2023-02-06T19:47:10.366Z,570.21
2023-02-06T19:50:31.170Z,529.98
2023-02-06T19:53:53.844Z,476.05
2023-02-06T19:57:19.591Z,436.84
2023-02-06T20:00:40.610Z,447.92
2023-02-06T20:04:04.081Z,447.02
2023-02-06T20:07:24.878Z,395.80
2023-02-06T20:10:45.769Z,419.00
2023-02-06T20:14:09.617Z,382.01
2023-02-06T20:17:33.179Z,363.63
2023-02-06T20:20:53.956Z,340.06
2023-02-06T20:24:25.477Z,339.24
2023-02-06T20:27:46.298Z,332.43
2023-02-06T20:31:14.731Z,348.43
2023-02-06T20:34:36.154Z,348.86
2023-02-06T20:38:08.884Z,389.34
2023-02-06T20:41:33.164Z,418.51
2023-02-06T20:44:54.032Z,492.63
2023-02-06T20:48:17.726Z,542.53
2023-02-06T20:51:38.808Z,480.71
2023-02-06T20:55:02.360Z,438.58
2023-02-06T20:58:23.527Z,422.88
2023-02-06T21:01:45.451Z,447.58
2023-02-06T21:05:09.645Z,460.70
2023-02-06T21:08:33.560Z,430.73
2023-02-06T21:11:57.618Z,420.25
2023-02-06T21:15:21.417Z,405.42
2023-02-06T21:18:42.926Z,394.81
2023-02-06T21:22:07.108Z,403.25
2023-02-06T21:25:28.650Z,592.26
2023-02-06T21:28:50.248Z,472.29
2023-02-06T21:32:14.636Z,468.10
2023-02-06T21:35:37.112Z,687.86
2023-02-06T21:39:00.964Z,769.11
2023-02-06T21:42:26.433Z,668.13
2023-02-06T21:45:50.128Z,576.73
2023-02-06T21:49:11.871Z,518.78
2023-02-06T21:52:32.654Z,507.03
2023-02-06T21:55:55.943Z,506.30
2023-02-06T21:59:16.957Z,513.72
2023-02-06T22:02:37.607Z,476.26
2023-02-06T22:06:12.710Z,443.33
2023-02-06T22:09:33.662Z,419.84
2023-02-06T22:12:57.097Z,419.42
2023-02-06T22:16:21.804Z,461.79
2023-02-06T22:19:42.716Z,459.74
2023-02-06T22:23:06.664Z,406.37
2023-02-06T22:26:30.353Z,407.42
2023-02-06T22:29:53.618Z,420.40
2023-02-06T22:33:14.276Z,410.72
2023-02-06T22:36:38.034Z,399.58
2023-02-06T22:39:59.283Z,408.80
2023-02-06T22:43:19.975Z,404.72
2023-02-06T22:46:43.478Z,406.76
2023-02-06T22:50:04.108Z,402.05
2023-02-06T22:53:35.160Z,514.10
2023-02-06T22:56:55.857Z,485.66
2023-02-06T23:00:18.697Z,466.54
2023-02-06T23:03:41.997Z,461.62
2023-02-06T23:07:06.183Z,456.63
2023-02-06T23:10:33.014Z,451.76
2023-02-06T23:13:56.401Z,402.12
2023-02-06T23:17:17.085Z,414.01
2023-02-06T23:20:42.016Z,341.88
2023-02-06T23:24:03.232Z,351.83
2023-02-06T23:27:25.518Z,331.65
2023-02-06T23:30:46.324Z,334.70
2023-02-06T23:34:07.325Z,350.49
2023-02-06T23:37:30.622Z,393.53
2023-02-06T23:40:51.600Z,303.88
2023-02-06T23:44:18.358Z,281.80
2023-02-06T23:47:39.778Z,291.82
2023-02-06T23:51:00.781Z,333.56
2023-02-06T23:54:24.640Z,304.66
2023-02-06T23:57:45.387Z,296.44
